Etusivu
METAR-TAF:

METAR-TAF

Lentoasemat :

Bay City, Texas, Yhdysvallat

Leveyspiiri: 28-58-23N, Pituuspiiri: 095-51-48W, korkeus merenpinnasta: 14 m

Tämänhetkinen sää

Tämä raportti tehtiin 28 minuuttia sitten, kello 12.35 UTC
tyyntä
Lämpötila 26°C
Kosteus 100%
Ilmanpaine 1017 hPa
Näkyvyys: 16.1 km
selkeää

METAR: KBYY 181235Z AUTO 00000KT 10SM CLR 26/26 A3003 RMK AO2 T02630257

Aika: 08:03 (13:03 UTC)


TAF: puuttuu

Säähavainnot ja -ennusteet yli 4000 lentoasemalta (METAR- ja TAF-raportit).

Käytössä olevat sääasemat on merkitty karttaan keltaisilla ja punaisilla pisteillä.

Aseta hiiri pisteen päälle nähdäksesi sääaseman nimen.

Klikkaa sitten nähdäksesi säähavainnot ja -ennusteet.

Kartan vaihtaminen: klikkaa mustalla rastilla varustettuja vihreitä pisteitä, niin voit zoomata sisään; viivalla varustettua vihreää pistettä, niin voit zoomata ulos tai vihreitä nuolia, niin pääset viereisille kartoille.


METAR-TAF: